sensor_id;sensor_type;location;lat;lon;timestamp;pressure;altitude;pressure_sealevel;temperature;humidity
44001;BME280;29660;42.892;24.710;2023-04-08T00:04:06;96867.59;;;2.56;100.00
44001;BME280;29660;42.892;24.710;2023-04-08T00:09:30;96924.66;;;3.01;100.00
44001;BME280;29660;42.892;24.710;2023-04-08T00:14:52;97168.50;;;4.55;100.00
44001;BME280;29660;42.892;24.710;2023-04-08T00:20:14;97089.22;;;4.11;100.00
44001;BME280;29660;42.892;24.710;2023-04-08T00:25:37;97068.16;;;3.94;100.00
44001;BME280;29660;42.892;24.710;2023-04-08T00:30:59;97165.97;;;4.43;100.00
44001;BME280;29660;42.892;24.710;2023-04-08T00:36:24;96991.66;;;3.38;100.00
44001;BME280;29660;42.892;24.710;2023-04-08T00:41:47;96700.63;;;1.51;100.00
44001;BME280;29660;42.892;24.710;2023-04-08T00:47:13;96943.75;;;2.91;100.00
44001;BME280;29660;42.892;24.710;2023-04-08T00:52:54;97013.28;;;3.24;100.00
44001;BME280;29660;42.892;24.710;2023-04-08T00:58:17;96947.31;;;2.85;100.00
44001;BME280;29660;42.892;24.710;2023-04-08T01:03:57;97219.47;;;4.55;100.00
44001;BME280;29660;42.892;24.710;2023-04-08T01:09:27;96900.63;;;2.63;100.00
44001;BME280;29660;42.892;24.710;2023-04-08T01:14:51;97163.84;;;4.06;100.00
44001;BME280;29660;42.892;24.710;2023-04-08T01:20:17;97175.19;;;4.24;100.00
44001;BME280;29660;42.892;24.710;2023-04-08T01:25:46;97044.38;;;3.38;100.00
44001;BME280;29660;42.892;24.710;2023-04-08T01:31:08;97201.72;;;4.51;100.00
44001;BME280;29660;42.892;24.710;2023-04-08T01:36:31;97090.47;;;3.86;100.00
44001;BME280;29660;42.892;24.710;2023-04-08T01:42:14;97157.22;;;4.21;100.00
44001;BME280;29660;42.892;24.710;2023-04-08T01:47:38;96905.97;;;2.68;100.00
44001;BME280;29660;42.892;24.710;2023-04-08T01:53:01;96968.25;;;3.08;100.00
44001;BME280;29660;42.892;24.710;2023-04-08T01:58:30;96935.97;;;2.84;100.00
44001;BME280;29660;42.892;24.710;2023-04-08T02:03:54;97205.78;;;4.58;100.00
44001;BME280;29660;42.892;24.710;2023-04-08T02:09:18;97215.72;;;4.51;100.00
44001;BME280;29660;42.892;24.710;2023-04-08T02:14:40;97118.59;;;3.81;100.00
44001;BME280;29660;42.892;24.710;2023-04-08T02:20:10;96876.97;;;2.35;100.00
44001;BME280;29660;42.892;24.710;2023-04-08T02:25:36;96951.00;;;2.84;100.00
44001;BME280;29660;42.892;24.710;2023-04-08T02:30:59;96940.94;;;2.81;100.00
44001;BME280;29660;42.892;24.710;2023-04-08T02:36:24;96861.16;;;2.35;100.00
44001;BME280;29660;42.892;24.710;2023-04-08T02:41:47;96874.72;;;2.43;100.00
44001;BME280;29660;42.892;24.710;2023-04-08T02:47:09;96917.84;;;2.71;100.00
44001;BME280;29660;42.892;24.710;2023-04-08T02:52:31;97205.50;;;4.38;100.00
44001;BME280;29660;42.892;24.710;2023-04-08T02:57:54;96920.84;;;2.46;100.00
44001;BME280;29660;42.892;24.710;2023-04-08T03:03:16;96948.00;;;2.63;100.00
44001;BME280;29660;42.892;24.710;2023-04-08T03:08:38;97201.69;;;4.29;100.00
44001;BME280;29660;42.892;24.710;2023-04-08T03:14:00;97192.66;;;4.25;100.00
44001;BME280;29660;42.892;24.710;2023-04-08T03:19:41;96969.56;;;2.77;100.00
44001;BME280;29660;42.892;24.710;2023-04-08T03:25:03;96914.00;;;2.45;100.00
44001;BME280;29660;42.892;24.710;2023-04-08T03:30:25;97237.03;;;4.45;100.00
44001;BME280;29660;42.892;24.710;2023-04-08T03:35:47;97105.56;;;3.57;100.00
44001;BME280;29660;42.892;24.710;2023-04-08T03:41:28;97241.75;;;4.42;100.00
44001;BME280;29660;42.892;24.710;2023-04-08T03:46:51;96951.50;;;2.52;100.00
44001;BME280;29660;42.892;24.710;2023-04-08T03:52:13;97045.78;;;3.12;100.00
44001;BME280;29660;42.892;24.710;2023-04-08T03:57:35;97034.28;;;3.18;100.00
44001;BME280;29660;42.892;24.710;2023-04-08T04:02:58;97026.47;;;3.24;100.00
44001;BME280;29660;42.892;24.710;2023-04-08T04:08:20;96913.19;;;2.44;100.00
44001;BME280;29660;42.892;24.710;2023-04-08T04:13:42;97035.41;;;3.23;100.00
44001;BME280;29660;42.892;24.710;2023-04-08T04:19:04;97141.84;;;3.67;100.00
44001;BME280;29660;42.892;24.710;2023-04-08T04:24:26;96938.06;;;2.37;100.00
44001;BME280;29660;42.892;24.710;2023-04-08T04:29:48;97239.59;;;4.39;100.00
44001;BME280;29660;42.892;24.710;2023-04-08T04:35:11;96978.31;;;2.66;100.00
44001;BME280;29660;42.892;24.710;2023-04-08T04:40:33;96889.56;;;2.04;100.00
44001;BME280;29660;42.892;24.710;2023-04-08T04:45:56;97126.75;;;3.62;100.00
44001;BME280;29660;42.892;24.710;2023-04-08T04:51:18;97172.09;;;3.93;100.00
44001;BME280;29660;42.892;24.710;2023-04-08T04:56:40;96790.09;;;1.72;100.00
44001;BME280;29660;42.892;24.710;2023-04-08T05:02:03;97238.44;;;4.69;100.00
44001;BME280;29660;42.892;24.710;2023-04-08T05:07:25;96938.38;;;2.86;100.00
44001;BME280;29660;42.892;24.710;2023-04-08T05:12:47;96721.34;;;1.64;100.00
44001;BME280;29660;42.892;24.710;2023-04-08T05:18:09;97287.63;;;5.09;100.00
44001;BME280;29660;42.892;24.710;2023-04-08T05:23:31;96974.38;;;3.48;100.00
44001;BME280;29660;42.892;24.710;2023-04-08T05:28:53;97183.72;;;4.86;100.00
44001;BME280;29660;42.892;24.710;2023-04-08T05:34:16;97262.91;;;5.42;100.00
44001;BME280;29660;42.892;24.710;2023-04-08T05:39:43;97195.94;;;5.14;100.00
44001;BME280;29660;42.892;24.710;2023-04-08T05:45:06;97002.31;;;4.04;100.00
44001;BME280;29660;42.892;24.710;2023-04-08T05:50:28;97184.13;;;5.22;100.00
44001;BME280;29660;42.892;24.710;2023-04-08T05:55:50;97210.16;;;5.57;100.00
44001;BME280;29660;42.892;24.710;2023-04-08T06:01:12;97195.31;;;5.78;100.00
44001;BME280;29660;42.892;24.710;2023-04-08T06:06:37;96999.94;;;4.74;100.00
44001;BME280;29660;42.892;24.710;2023-04-08T06:11:59;96966.38;;;4.47;100.00
44001;BME280;29660;42.892;24.710;2023-04-08T06:17:22;97186.34;;;6.11;99.11
44001;BME280;29660;42.892;24.710;2023-04-08T06:22:44;97020.38;;;5.10;98.10
44001;BME280;29660;42.892;24.710;2023-04-08T06:28:07;97254.34;;;6.75;97.81
44001;BME280;29660;42.892;24.710;2023-04-08T06:33:29;97168.28;;;6.41;95.17
44001;BME280;29660;42.892;24.710;2023-04-08T06:38:52;97256.94;;;7.12;93.03
44001;BME280;29660;42.892;24.710;2023-04-08T06:44:14;96967.56;;;5.53;92.17
44001;BME280;29660;42.892;24.710;2023-04-08T06:49:36;97241.69;;;7.45;88.73
44001;BME280;29660;42.892;24.710;2023-04-08T06:54:58;97090.28;;;6.74;86.52
44001;BME280;29660;42.892;24.710;2023-04-08T07:00:21;97267.88;;;8.15;83.90
44001;BME280;29660;42.892;24.710;2023-04-08T07:05:43;97213.41;;;8.12;81.59
44001;BME280;29660;42.892;24.710;2023-04-08T07:11:05;97244.78;;;8.56;76.71
44001;BME280;29660;42.892;24.710;2023-04-08T07:16:46;97225.91;;;8.78;74.09
44001;BME280;29660;42.892;24.710;2023-04-08T07:22:08;97228.44;;;9.24;76.56
44001;BME280;29660;42.892;24.710;2023-04-08T07:27:32;97200.19;;;9.33;71.26
44001;BME280;29660;42.892;24.710;2023-04-08T07:32:54;97002.41;;;8.44;69.12
44001;BME280;29660;42.892;24.710;2023-04-08T07:38:17;96934.22;;;8.19;65.57
44001;BME280;29660;42.892;24.710;2023-04-08T07:43:40;97008.09;;;8.81;63.87
44001;BME280;29660;42.892;24.710;2023-04-08T07:49:02;96950.69;;;8.75;62.88
44001;BME280;29660;42.892;24.710;2023-04-08T07:54:24;97218.47;;;10.92;61.80
44001;BME280;29660;42.892;24.710;2023-04-08T07:59:46;96985.31;;;9.73;56.75
44001;BME280;29660;42.892;24.710;2023-04-08T08:05:08;96880.50;;;9.34;55.72
44001;BME280;29660;42.892;24.710;2023-04-08T08:10:31;96956.16;;;10.11;55.54
44001;BME280;29660;42.892;24.710;2023-04-08T08:15:53;97232.31;;;12.03;52.59
44001;BME280;29660;42.892;24.710;2023-04-08T08:21:15;97213.38;;;11.81;50.39
44001;BME280;29660;42.892;24.710;2023-04-08T08:26:37;97230.47;;;12.18;52.41
44001;BME280;29660;42.892;24.710;2023-04-08T08:31:59;97228.31;;;12.20;49.38
44001;BME280;29660;42.892;24.710;2023-04-08T08:37:22;97169.28;;;11.84;50.46
44001;BME280;29660;42.892;24.710;2023-04-08T08:43:02;97192.28;;;12.64;50.99
44001;BME280;29660;42.892;24.710;2023-04-08T08:48:25;96846.59;;;10.69;48.79
44001;BME280;29660;42.892;24.710;2023-04-08T08:53:47;97161.00;;;12.92;48.37
44001;BME280;29660;42.892;24.710;2023-04-08T08:59:09;97197.19;;;13.03;46.40
44001;BME280;29660;42.892;24.710;2023-04-08T09:04:32;96951.75;;;11.85;46.38
44001;BME280;29660;42.892;24.710;2023-04-08T09:09:56;96926.91;;;11.84;44.77
44001;BME280;29660;42.892;24.710;2023-04-08T09:15:18;97221.44;;;13.89;45.14
44001;BME280;29660;42.892;24.710;2023-04-08T09:20:51;97173.75;;;13.64;44.40
44001;BME280;29660;42.892;24.710;2023-04-08T09:26:15;96967.88;;;12.35;42.71
44001;BME280;29660;42.892;24.710;2023-04-08T09:31:38;97110.00;;;13.38;43.20
44001;BME280;29660;42.892;24.710;2023-04-08T09:37:04;96968.59;;;12.76;44.53
44001;BME280;29660;42.892;24.710;2023-04-08T09:42:26;96969.22;;;12.73;43.41
44001;BME280;29660;42.892;24.710;2023-04-08T09:53:33;97212.00;;;13.78;44.64
44001;BME280;29660;42.892;24.710;2023-04-08T09:59:03;97119.16;;;13.10;44.59
44001;BME280;29660;42.892;24.710;2023-04-08T10:04:34;96813.50;;;11.02;43.90
44001;BME280;29660;42.892;24.710;2023-04-08T10:09:58;97149.31;;;13.01;44.89
44001;BME280;29660;42.892;24.710;2023-04-08T10:15:27;97189.72;;;13.55;43.63
44001;BME280;29660;42.892;24.710;2023-04-08T10:20:50;96993.34;;;12.18;43.58
44001;BME280;29660;42.892;24.710;2023-04-08T10:26:29;96991.53;;;12.14;43.53
44001;BME280;29660;42.892;24.710;2023-04-08T10:31:52;97189.75;;;13.27;42.61
44001;BME280;29660;42.892;24.710;2023-04-08T10:37:15;97097.16;;;12.30;43.60
44001;BME280;29660;42.892;24.710;2023-04-08T10:42:37;96970.63;;;11.42;44.35
44001;BME280;29660;42.892;24.710;2023-04-08T10:48:16;96976.72;;;11.28;44.84
44001;BME280;29660;42.892;24.710;2023-04-08T10:53:39;97183.72;;;12.34;46.26
44001;BME280;29660;42.892;24.710;2023-04-08T10:59:01;97220.09;;;12.49;47.01
44001;BME280;29660;42.892;24.710;2023-04-08T11:04:24;96990.59;;;10.93;47.33
44001;BME280;29660;42.892;24.710;2023-04-08T11:09:47;97179.38;;;12.38;47.36
44001;BME280;29660;42.892;24.710;2023-04-08T11:15:12;97184.25;;;12.64;46.16
44001;BME280;29660;42.892;24.710;2023-04-08T11:20:35;97204.31;;;12.80;46.80
44001;BME280;29660;42.892;24.710;2023-04-08T11:25:58;96948.47;;;11.09;47.58
44001;BME280;29660;42.892;24.710;2023-04-08T11:31:20;96915.84;;;11.12;46.92
44001;BME280;29660;42.892;24.710;2023-04-08T11:36:45;96920.88;;;11.46;46.76
44001;BME280;29660;42.892;24.710;2023-04-08T11:42:08;96901.97;;;11.42;47.49
44001;BME280;29660;42.892;24.710;2023-04-08T11:47:32;97188.19;;;13.40;47.08
44001;BME280;29660;42.892;24.710;2023-04-08T11:52:54;96921.75;;;11.41;48.13
44001;BME280;29660;42.892;24.710;2023-04-08T11:58:16;97149.28;;;12.60;51.05
44001;BME280;29660;42.892;24.710;2023-04-08T12:03:38;97109.03;;;12.51;54.21
44001;BME280;29660;42.892;24.710;2023-04-08T12:09:01;96952.03;;;10.85;57.29
44001;BME280;29660;42.892;24.710;2023-04-08T12:14:23;97152.81;;;12.09;57.62
44001;BME280;29660;42.892;24.710;2023-04-08T12:19:48;97225.28;;;12.26;59.33
44001;BME280;29660;42.892;24.710;2023-04-08T12:25:11;96948.03;;;9.73;62.80
44001;BME280;29660;42.892;24.710;2023-04-08T12:30:33;97206.78;;;11.54;62.88
44001;BME280;29660;42.892;24.710;2023-04-08T12:35:55;96922.50;;;9.67;64.60
44001;BME280;29660;42.892;24.710;2023-04-08T12:41:20;97140.66;;;11.03;67.46
44001;BME280;29660;42.892;24.710;2023-04-08T12:46:42;97218.41;;;11.64;68.46
44001;BME280;29660;42.892;24.710;2023-04-08T12:52:04;97221.22;;;11.53;66.95
44001;BME280;29660;42.892;24.710;2023-04-08T12:57:27;96946.13;;;10.02;67.19
44001;BME280;29660;42.892;24.710;2023-04-08T13:02:49;96941.22;;;9.86;72.01
44001;BME280;29660;42.892;24.710;2023-04-08T13:08:11;96953.81;;;9.80;78.61
44001;BME280;29660;42.892;24.710;2023-04-08T13:13:34;96879.22;;;9.32;78.30
44001;BME280;29660;42.892;24.710;2023-04-08T13:18:57;97205.00;;;11.69;78.97
44001;BME280;29660;42.892;24.710;2023-04-08T13:24:20;97101.44;;;11.23;78.05
44001;BME280;29660;42.892;24.710;2023-04-08T13:29:42;96991.28;;;10.79;71.47
44001;BME280;29660;42.892;24.710;2023-04-08T13:35:04;97120.09;;;11.85;70.63
44001;BME280;29660;42.892;24.710;2023-04-08T13:40:29;97213.38;;;12.65;68.82
44001;BME280;29660;42.892;24.710;2023-04-08T13:45:51;97195.38;;;12.71;67.38
44001;BME280;29660;42.892;24.710;2023-04-08T13:51:13;97157.16;;;12.38;68.01
44001;BME280;29660;42.892;24.710;2023-04-08T13:56:35;96929.06;;;10.84;66.74
44001;BME280;29660;42.892;24.710;2023-04-08T14:01:57;97187.78;;;12.45;66.75
44001;BME280;29660;42.892;24.710;2023-04-08T14:07:20;96930.16;;;10.64;65.57
44001;BME280;29660;42.892;24.710;2023-04-08T14:12:42;96957.72;;;10.78;65.29
44001;BME280;29660;42.892;24.710;2023-04-08T14:18:04;96915.31;;;10.58;66.29
44001;BME280;29660;42.892;24.710;2023-04-08T14:23:29;97174.19;;;12.28;64.56
44001;BME280;29660;42.892;24.710;2023-04-08T14:28:51;96956.47;;;10.71;63.66
44001;BME280;29660;42.892;24.710;2023-04-08T14:34:14;97193.31;;;12.02;73.89
44001;BME280;29660;42.892;24.710;2023-04-08T14:39:36;97148.66;;;11.46;80.46
44001;BME280;29660;42.892;24.710;2023-04-08T14:44:58;97156.47;;;11.24;84.64
44001;BME280;29660;42.892;24.710;2023-04-08T14:50:20;97195.63;;;11.28;88.27
44001;BME280;29660;42.892;24.710;2023-04-08T14:55:43;96882.66;;;9.03;87.92
44001;BME280;29660;42.892;24.710;2023-04-08T15:01:05;97184.69;;;11.06;89.00
44001;BME280;29660;42.892;24.710;2023-04-08T15:06:27;96971.84;;;9.88;90.73
44001;BME280;29660;42.892;24.710;2023-04-08T15:11:49;97064.94;;;10.56;91.75
44001;BME280;29660;42.892;24.710;2023-04-08T15:17:12;96964.78;;;10.02;88.97
44001;BME280;29660;42.892;24.710;2023-04-08T15:22:34;96903.94;;;9.62;87.73
44001;BME280;29660;42.892;24.710;2023-04-08T15:27:56;97182.09;;;11.63;86.38
44001;BME280;29660;42.892;24.710;2023-04-08T15:33:18;97067.31;;;10.82;84.08
44001;BME280;29660;42.892;24.710;2023-04-08T15:38:40;96861.66;;;9.31;80.17
44001;BME280;29660;42.892;24.710;2023-04-08T15:44:03;96694.47;;;8.03;84.08
44001;BME280;29660;42.892;24.710;2023-04-08T15:49:25;97188.72;;;11.03;79.14
44001;BME280;29660;42.892;24.710;2023-04-08T15:54:47;96905.00;;;9.02;81.36
44001;BME280;29660;42.892;24.710;2023-04-08T16:00:10;96906.00;;;9.12;81.12
44001;BME280;29660;42.892;24.710;2023-04-08T16:05:35;97103.63;;;10.30;82.62
44001;BME280;29660;42.892;24.710;2023-04-08T16:11:00;96972.81;;;9.44;79.88
44001;BME280;29660;42.892;24.710;2023-04-08T16:16:23;96920.50;;;8.95;81.30
44001;BME280;29660;42.892;24.710;2023-04-08T16:21:45;96923.75;;;8.87;79.27
44001;BME280;29660;42.892;24.710;2023-04-08T16:27:08;96882.00;;;8.48;82.93
44001;BME280;29660;42.892;24.710;2023-04-08T16:32:30;96968.97;;;8.87;80.04
44001;BME280;29660;42.892;24.710;2023-04-08T16:37:52;97201.13;;;10.36;80.24
44001;BME280;29660;42.892;24.710;2023-04-08T16:43:14;96959.41;;;8.86;81.23
44001;BME280;29660;42.892;24.710;2023-04-08T16:48:37;96951.22;;;8.77;81.53
44001;BME280;29660;42.892;24.710;2023-04-08T16:54:00;96962.47;;;8.59;87.05
44001;BME280;29660;42.892;24.710;2023-04-08T16:59:22;97108.91;;;9.27;89.55
44001;BME280;29660;42.892;24.710;2023-04-08T17:04:48;97214.84;;;9.80;92.67
44001;BME280;29660;42.892;24.710;2023-04-08T17:10:10;97025.28;;;8.34;94.49
44001;BME280;29660;42.892;24.710;2023-04-08T17:15:34;96947.72;;;7.47;97.57
44001;BME280;29660;42.892;24.710;2023-04-08T17:20:57;96942.38;;;7.42;96.72
44001;BME280;29660;42.892;24.710;2023-04-08T17:26:19;96954.06;;;7.31;99.35
44001;BME280;29660;42.892;24.710;2023-04-08T17:31:43;97238.38;;;8.93;100.00
44001;BME280;29660;42.892;24.710;2023-04-08T17:37:05;96726.00;;;5.42;100.00
44001;BME280;29660;42.892;24.710;2023-04-08T17:42:28;97010.56;;;7.01;100.00
44001;BME280;29660;42.892;24.710;2023-04-08T17:47:50;96988.50;;;6.75;100.00
44001;BME280;29660;42.892;24.710;2023-04-08T17:53:13;97285.94;;;8.33;100.00
44001;BME280;29660;42.892;24.710;2023-04-08T17:58:37;97273.47;;;8.23;100.00
44001;BME280;29660;42.892;24.710;2023-04-08T18:04:19;97031.34;;;6.46;100.00
44001;BME280;29660;42.892;24.710;2023-04-08T18:09:42;97301.31;;;7.95;100.00
44001;BME280;29660;42.892;24.710;2023-04-08T18:15:05;97056.13;;;6.20;100.00
44001;BME280;29660;42.892;24.710;2023-04-08T18:20:27;97300.16;;;7.66;100.00
44001;BME280;29660;42.892;24.710;2023-04-08T18:25:50;97026.97;;;5.77;100.00
44001;BME280;29660;42.892;24.710;2023-04-08T18:31:13;97200.63;;;6.90;100.00
44001;BME280;29660;42.892;24.710;2023-04-08T18:36:35;97313.41;;;7.55;100.00
44001;BME280;29660;42.892;24.710;2023-04-08T18:41:57;97277.19;;;7.34;100.00
44001;BME280;29660;42.892;24.710;2023-04-08T18:47:20;97049.50;;;5.85;100.00
44001;BME280;29660;42.892;24.710;2023-04-08T18:52:42;97121.34;;;6.31;100.00
44001;BME280;29660;42.892;24.710;2023-04-08T18:58:04;97047.84;;;5.74;100.00
44001;BME280;29660;42.892;24.710;2023-04-08T19:03:27;97338.38;;;7.59;100.00
44001;BME280;29660;42.892;24.710;2023-04-08T19:08:49;97330.41;;;7.65;100.00
44001;BME280;29660;42.892;24.710;2023-04-08T19:14:11;97069.22;;;5.94;100.00
44001;BME280;29660;42.892;24.710;2023-04-08T19:19:34;97039.88;;;5.69;100.00
44001;BME280;29660;42.892;24.710;2023-04-08T19:24:56;97346.91;;;7.72;100.00
44001;BME280;29660;42.892;24.710;2023-04-08T19:30:18;97013.94;;;5.65;100.00
44001;BME280;29660;42.892;24.710;2023-04-08T19:35:41;97095.22;;;6.02;100.00
44001;BME280;29660;42.892;24.710;2023-04-08T19:41:03;97331.88;;;7.35;100.00
44001;BME280;29660;42.892;24.710;2023-04-08T19:46:27;97067.38;;;5.62;100.00
44001;BME280;29660;42.892;24.710;2023-04-08T19:51:50;97081.50;;;5.78;100.00
44001;BME280;29660;42.892;24.710;2023-04-08T19:57:12;97313.25;;;7.30;100.00
44001;BME280;29660;42.892;24.710;2023-04-08T20:02:34;97326.84;;;7.38;100.00
44001;BME280;29660;42.892;24.710;2023-04-08T20:07:57;97052.03;;;5.64;100.00
44001;BME280;29660;42.892;24.710;2023-04-08T20:13:19;97048.66;;;5.74;100.00
44001;BME280;29660;42.892;24.710;2023-04-08T20:18:41;96849.81;;;4.33;100.00
44001;BME280;29660;42.892;24.710;2023-04-08T20:24:04;97103.19;;;6.12;100.00
44001;BME280;29660;42.892;24.710;2023-04-08T20:29:26;97050.47;;;5.69;100.00
44001;BME280;29660;42.892;24.710;2023-04-08T20:34:49;97065.56;;;5.68;100.00
44001;BME280;29660;42.892;24.710;2023-04-08T20:40:12;97037.72;;;5.60;100.00
44001;BME280;29660;42.892;24.710;2023-04-08T20:45:36;97117.69;;;6.00;100.00
44001;BME280;29660;42.892;24.710;2023-04-08T20:50:58;97035.25;;;5.49;100.00
44001;BME280;29660;42.892;24.710;2023-04-08T20:56:21;97148.28;;;6.18;100.00
44001;BME280;29660;42.892;24.710;2023-04-08T21:01:43;97105.28;;;5.73;100.00
44001;BME280;29660;42.892;24.710;2023-04-08T21:07:05;97234.25;;;6.42;100.00
44001;BME280;29660;42.892;24.710;2023-04-08T21:12:27;97355.56;;;7.04;100.00
44001;BME280;29660;42.892;24.710;2023-04-08T21:17:50;97342.16;;;6.84;100.00
44001;BME280;29660;42.892;24.710;2023-04-08T21:23:12;97342.31;;;7.04;100.00
44001;BME280;29660;42.892;24.710;2023-04-08T21:28:34;97277.09;;;6.66;100.00
44001;BME280;29660;42.892;24.710;2023-04-08T21:33:56;97326.59;;;6.98;100.00
44001;BME280;29660;42.892;24.710;2023-04-08T21:39:18;97041.91;;;5.24;100.00
44001;BME280;29660;42.892;24.710;2023-04-08T21:44:59;97266.66;;;6.54;100.00
44001;BME280;29660;42.892;24.710;2023-04-08T21:50:21;97053.75;;;5.16;100.00
44001;BME280;29660;42.892;24.710;2023-04-08T21:55:43;97219.22;;;6.15;100.00
44001;BME280;29660;42.892;24.710;2023-04-08T22:01:05;97328.84;;;6.79;100.00
44001;BME280;29660;42.892;24.710;2023-04-08T22:06:28;97357.41;;;6.72;100.00
44001;BME280;29660;42.892;24.710;2023-04-08T22:11:53;97364.28;;;6.68;100.00
44001;BME280;29660;42.892;24.710;2023-04-08T22:17:15;97052.47;;;4.92;100.00
44001;BME280;29660;42.892;24.710;2023-04-08T22:22:37;97074.34;;;5.14;100.00
44001;BME280;29660;42.892;24.710;2023-04-08T22:27:59;97335.41;;;6.71;100.00
44001;BME280;29660;42.892;24.710;2023-04-08T22:33:22;97071.94;;;4.86;100.00
44001;BME280;29660;42.892;24.710;2023-04-08T22:38:44;97241.81;;;5.96;100.00
44001;BME280;29660;42.892;24.710;2023-04-08T22:44:07;97122.78;;;5.20;100.00
44001;BME280;29660;42.892;24.710;2023-04-08T22:49:29;97256.09;;;5.95;100.00
44001;BME280;29660;42.892;24.710;2023-04-08T22:54:51;97277.31;;;6.00;100.00
44001;BME280;29660;42.892;24.710;2023-04-08T23:00:13;97089.06;;;4.83;100.00
44001;BME280;29660;42.892;24.710;2023-04-08T23:05:35;97292.38;;;6.22;100.00
44001;BME280;29660;42.892;24.710;2023-04-08T23:10:57;97089.63;;;4.85;100.00
44001;BME280;29660;42.892;24.710;2023-04-08T23:16:19;97342.56;;;6.38;100.00
44001;BME280;29660;42.892;24.710;2023-04-08T23:21:42;97343.84;;;6.36;100.00
44001;BME280;29660;42.892;24.710;2023-04-08T23:27:04;97176.38;;;5.37;100.00
44001;BME280;29660;42.892;24.710;2023-04-08T23:32:26;96756.63;;;2.64;100.00
44001;BME280;29660;42.892;24.710;2023-04-08T23:37:48;97302.81;;;6.06;100.00
44001;BME280;29660;42.892;24.710;2023-04-08T23:43:10;97227.88;;;5.57;100.00
44001;BME280;29660;42.892;24.710;2023-04-08T23:48:32;97238.09;;;5.70;100.00
44001;BME280;29660;42.892;24.710;2023-04-08T23:53:54;97312.38;;;6.12;100.00
44001;BME280;29660;42.892;24.710;2023-04-08T23:59:17;97044.19;;;4.39;100.00
